METAR Data
IDs: Format: Raw Decoded Include TAF

Data at: 2355 UTC 25 Oct 2021

PAPM 252256Z AUTO 36023G27KT 10SM OVC021 M01/M04 A2938 RMK AO2 PK WND 36028/2237 SLP951 T10061044 FZRANO
PAPM 252156Z AUTO 36021G26KT 10SM OVC027 M01/M04 A2938 RMK AO2 PK WND 36029/2137 SLP951 T10111044 FZRANO
PAPM 252056Z AUTO 01021KT 10SM BKN017 BKN025 M02/M05 A2937 RMK AO2 PK WND 36031/2030 SLP947 T10221050 51008 FZRANO
PAPM 251956Z AUTO 36023KT 10SM OVC026 M02/M05 A2937 RMK AO2 PK WND 36028/1944 SLP946 T10221050 FZRANO
PAPM 251943Z AUTO 35021G25KT 10SM BKN028 M02/M05 A2937 RMK AO2 FZRANO
PAPM 251856Z AUTO 36015KT 10SM CLR M03/M06 A2935 RMK AO2 SLP942 T10331056 FZRANO
PAPM 251756Z AUTO 34011KT 10SM CLR M04/M06 A2934 RMK AO2 SLP939 T10441056 11011 21044 53007 FZRANO
PAPM 251656Z AUTO 35015KT 10SM CLR M04/M05 A2933 RMK AO2 SLP935 T10391050 FZRANO
PAPM 251556Z AUTO 35014KT 10SM CLR M03/M05 A2932 RMK AO2 SLP932 T10331050 FZRANO
PAPM 251456Z AUTO 35015KT 10SM FEW027 M03/M04 A2932 RMK AO2 SLP931 T10281044 56005 FZRANO
PAPM 251356Z AUTO 36012KT 10SM CLR M03/M04 A2933 RMK AO2 SLP933 T10281044 FZRANO
PAPM 251256Z AUTO 36016KT 10SM CLR M02/M05 A2932 RMK AO2 PK WND 01027/1215 SLP932 T10221050 FZRANO
PAPM 251156Z AUTO 36015G20KT 10SM CLR M02/M05 A2934 RMK AO2 SLP936 T10171050 11006 21017 56007 FZRANO
PAPM 251056Z AUTO 01019KT 10SM CLR M01/M04 A2934 RMK AO2 SLP937 T10111039 FZRANO
PAPM 250956Z AUTO 01018KT 10SM CLR M01/M05 A2935 RMK AO2 SLP941 T10111050 FZRANO
PAPM 250856Z AUTO 36013KT 10SM CLR M01/M05 A2936 RMK AO2 SLP943 T10111050 400221022 56009 FZRANO
PAPM 250756Z AUTO 02013KT 10SM CLR M01/M05 A2936 RMK AO2 SLP945 T10111050 FZRANO
PAPM 250656Z AUTO 01014KT 10SM CLR M01/M05 A2936 RMK AO2 SLP946 T10061050 FZRANO
PAPM 250556Z AUTO 02015KT 10SM CLR M01/M05 A2938 RMK AO2 SLP952 T10061050 10017 21006 58014 FZRANO
PAPM 250456Z AUTO 04012KT 10SM CLR M01/M04 A2940 RMK AO2 SLP958 T10061044 FZRANO
PAPM 250356Z AUTO 04018KT 10SM CLR 00/M04 A2941 RMK AO2 SLP962 T00001044 FZRANO
PAPM 250256Z AUTO 02016KT 10SM CLR 00/M04 A2942 RMK AO2 SLP966 T00001044 56028 FZRANO
PAPM 250156Z AUTO 01015KT 10SM CLR 01/M05 A2944 RMK AO2 SLP972 T00061050 FZRANO
PAPM 250056Z AUTO 36014KT 10SM CLR 01/M04 A2947 RMK AO2 SLP982 T00061039 FZRANO
PAPM 242356Z AUTO 01014KT 10SM CLR 02/M04 A2951 RMK AO2 SLP994 T00171039 10017 21022 58025 FZRANO
PAPM 242256Z AUTO 36011KT 10SM SCT019 01/M03 A2954 RMK AO2 SLP005 T00111028 FZRANO
PAPM 242156Z AUTO 01010KT 10SM SCT017 01/M02 A2956 RMK AO2 SLP013 T00111022 FZRANO
PAPM 242056Z AUTO 36011KT 10SM CLR 01/M03 A2958 RMK AO2 SLP019 T00111028 56009 FZRANO
PAPM 241956Z AUTO 01011KT 10SM CLR 01/M02 A2959 RMK AO2 SLP022 T00061022 FZRANO
PAPM 241856Z AUTO 36007KT 10SM CLR M01/M02 A2960 RMK AO2 SLP024 T10111022 FZRANO
PAPM 241756Z AUTO 35008KT 10SM CLR M02/M04 A2961 RMK AO2 SLP028 T10221039 10011 21022 56011 FZRANO
PAPM 241656Z AUTO 35007KT 10SM CLR M02/M03 A2962 RMK AO2 SLP031 T10171028 FZRANO
PAPM 241556Z AUTO 36008KT 10SM CLR M01/M02 A2963 RMK AO2 SLP034 T10111022 FZRANO
PAPM 241456Z AUTO 36007KT 10SM CLR M01/M02 A2964 RMK AO2 SLP039 T10061022 50006 FZRANO
PAPM 241356Z AUTO 34011KT 10SM CLR 00/M02 A2964 RMK AO2 SLP039 T00001022 FZRANO
PAPM 241256Z AUTO 34012KT 10SM CLR 01/M02 A2963 RMK AO2 SLP035 T00061022 FZRANO
PAPM 241156Z AUTO 34016KT 10SM CLR 01/M02 A2962 RMK AO2 SLP033 70001 T00111022 10022 20011 53017 FZRANO